Time;durP1;ratioP1;P1;durP2;ratioP2;P2;SDS_P1;SDS_P2;PMS_P1;PMS_P2;Temp;Humidity;BMP_temperature;BMP_pressure;BME280_temperature;BME280_humidity;BME280_pressure;Samples;Min_cycle;Max_cycle;Signal;HPM_P1;HPM_P2
2022/09/08 00:02:07;;;;;;;24.15;19.70;;;16.90;99.90;;;;;;4994237;28;20046;-74
2022/09/08 00:04:33;;;;;;;27.58;21.90;;;17.20;99.90;;;;;;4994371;28;20057;-74
2022/09/08 00:07:01;;;;;;;26.17;20.42;;;17.00;99.90;;;;;;4994692;28;20046;-74
2022/09/08 00:09:32;;;;;;;25.83;21.17;;;17.00;99.90;;;;;;4994313;28;20058;-74
2022/09/08 00:11:58;;;;;;;27.85;21.35;;;17.00;99.90;;;;;;4994253;28;20127;-74
2022/09/08 00:14:24;;;;;;;27.33;22.20;;;17.10;99.90;;;;;;4994648;28;20430;-74
2022/09/08 00:16:50;;;;;;;28.73;22.92;;;17.10;99.90;;;;;;4994595;28;20054;-74
2022/09/08 00:19:16;;;;;;;30.23;22.58;;;17.20;99.90;;;;;;4993572;28;20050;-74
2022/09/08 00:21:42;;;;;;;28.38;22.95;;;17.10;99.90;;;;;;4993847;28;20418;-74
2022/09/08 00:24:07;;;;;;;27.75;22.02;;;17.10;99.90;;;;;;4994293;28;20104;-74
2022/09/08 00:26:33;;;;;;;29.60;22.65;;;17.20;99.90;;;;;;4993399;28;20382;-74
2022/09/08 00:28:59;;;;;;;27.60;23.25;;;16.90;99.90;;;;;;4976725;28;20054;-74
2022/09/08 00:31:25;;;;;;;28.90;24.38;;;17.10;99.90;;;;;;4993949;28;20105;-74
2022/09/08 00:33:51;;;;;;;28.02;24.48;;;17.20;99.90;;;;;;4993938;28;20050;-74
2022/09/08 00:36:17;;;;;;;30.83;24.15;;;17.10;99.90;;;;;;4993655;28;20081;-74
2022/09/08 00:38:50;;;;;;;30.55;24.05;;;17.00;99.90;;;;;;4992837;28;20541;-74
2022/09/08 00:41:17;;;;;;;30.70;24.60;;;17.10;99.90;;;;;;4993969;28;20042;-74
2022/09/08 00:43:45;;;;;;;30.23;24.80;;;17.20;99.90;;;;;;4994387;28;20054;-74
2022/09/08 00:46:17;;;;;;;30.77;24.70;;;17.10;99.90;;;;;;4994367;28;20101;-74
2022/09/08 00:48:58;;;;;;;30.07;24.63;;;16.90;99.90;;;;;;4994073;28;20173;-74
2022/09/08 00:51:25;;;;;;;34.47;25.90;;;17.10;99.90;;;;;;4994347;28;20058;-74
2022/09/08 00:53:53;;;;;;;31.83;24.95;;;17.20;99.90;;;;;;4992561;28;20100;-74
2022/09/08 00:56:22;;;;;;;31.75;24.17;;;17.10;99.90;;;;;;4992737;28;20108;-74
2022/09/08 00:58:48;;;;;;;29.58;25.05;;;16.90;99.90;;;;;;4993199;28;20471;-74
2022/09/08 01:01:14;;;;;;;34.58;26.25;;;17.10;99.90;;;;;;4993745;28;20050;-75
2022/09/08 01:03:41;;;;;;;33.85;25.80;;;17.00;99.90;;;;;;4993610;28;20046;-74
2022/09/08 01:12:55;;;;;;;33.15;24.42;;;17.00;99.90;;;;;;4997619;28;20050;-74
2022/09/08 01:15:23;;;;;;;32.38;26.65;;;17.00;99.90;;;;;;4997302;28;20117;-75
2022/09/08 01:17:51;;;;;;;36.67;26.42;;;17.10;99.90;;;;;;4995823;28;20089;-74
2022/09/08 01:20:20;;;;;;;34.40;26.88;;;17.30;99.90;;;;;;4996944;28;20050;-75
2022/09/08 01:23:15;;;;;;;35.47;27.33;;;17.00;99.90;;;;;;4997719;28;20451;-74
2022/09/08 01:26:08;;;;;;;35.13;27.17;;;17.00;99.90;;;;;;4996058;28;20050;-73
2022/09/08 01:28:50;;;;;;;33.45;27.17;;;17.10;99.90;;;;;;4995737;28;20133;-74
2022/09/08 01:31:17;;;;;;;35.55;27.20;;;17.00;99.90;;;;;;4996534;28;20506;-74
2022/09/08 01:33:43;;;;;;;39.50;29.73;;;17.10;99.90;;;;;;4996032;28;20061;-74
2022/09/08 01:36:11;;;;;;;37.80;27.58;;;17.00;99.90;;;;;;4979360;28;20469;-74
2022/09/08 01:38:37;;;;;;;36.38;27.70;;;17.00;99.90;;;;;;4996629;28;20069;-75
2022/09/08 01:41:03;;;;;;;33.88;28.55;;;17.10;99.90;;;;;;4995869;28;20490;-75
2022/09/08 01:43:29;;;;;;;39.45;29.30;;;17.00;99.90;;;;;;4995293;28;20537;-75
2022/09/08 01:45:58;;;;;;;36.15;28.33;;;17.00;99.90;;;;;;4995512;28;20054;-75
2022/09/08 01:48:24;;;;;;;36.30;27.02;;;17.00;99.90;;;;;;4996371;28;20042;-75
2022/09/08 01:50:50;;;;;;;39.53;28.55;;;16.80;99.90;;;;;;4996060;28;20565;-75
2022/09/08 01:53:17;;;;;;;41.00;29.60;;;17.00;99.90;;;;;;4995164;28;20130;-75
2022/09/08 01:55:46;;;;;;;37.40;27.88;;;16.90;99.90;;;;;;4995648;28;20238;-75
2022/09/08 01:58:11;;;;;;;38.13;28.27;;;16.90;99.90;;;;;;4995560;28;20137;-74
2022/09/08 02:00:40;;;;;;;36.33;28.23;;;16.90;99.90;;;;;;4995031;28;20138;-75
2022/09/08 02:03:06;;;;;;;36.30;28.50;;;17.10;99.90;;;;;;4995239;28;20053;-74
2022/09/08 02:05:32;;;;;;;34.08;28.52;;;16.80;99.90;;;;;;4979136;28;20045;-74
2022/09/08 02:07:58;;;;;;;38.90;29.73;;;17.00;99.90;;;;;;4995997;28;20372;-75
2022/09/08 02:10:23;;;;;;;43.75;31.35;;;17.00;99.90;;;;;;4994837;28;20383;-75
2022/09/08 02:12:49;;;;;;;40.80;30.40;;;17.00;99.90;;;;;;4996522;28;20051;-75
2022/09/08 02:15:15;;;;;;;41.60;30.83;;;17.00;99.90;;;;;;4996201;28;20054;-75
2022/09/08 02:17:40;;;;;;;36.22;28.65;;;17.00;99.90;;;;;;4994918;28;20046;-75
2022/09/08 02:20:06;;;;;;;38.75;30.42;;;16.80;99.90;;;;;;4994646;28;20387;-75
2022/09/08 02:22:32;;;;;;;39.95;30.92;;;17.20;99.90;;;;;;4994361;28;20398;-75
2022/09/08 02:24:58;;;;;;;41.00;30.75;;;17.00;99.90;;;;;;4994773;28;20050;-75
2022/09/08 02:27:23;;;;;;;42.53;32.50;;;17.00;99.90;;;;;;4995657;28;20056;-75
2022/09/08 02:29:49;;;;;;;39.13;30.73;;;17.10;99.90;;;;;;4995892;28;20044;-75
2022/09/08 02:32:15;;;;;;;38.90;30.13;;;17.10;99.90;;;;;;4995277;28;20061;-75
2022/09/08 02:34:41;;;;;;;38.90;29.58;;;17.00;99.90;;;;;;4995876;28;20046;-75
2022/09/08 02:37:06;;;;;;;37.20;29.67;;;17.00;99.90;;;;;;4995543;28;20054;-75
2022/09/08 02:39:32;;;;;;;40.13;30.25;;;17.00;99.90;;;;;;4995083;28;20125;-75
2022/09/08 02:41:57;;;;;;;40.47;30.80;;;17.00;99.90;;;;;;4995698;28;20042;-74
2022/09/08 02:44:23;;;;;;;43.53;32.67;;;16.90;99.90;;;;;;4995879;28;20478;-74
2022/09/08 02:46:49;;;;;;;43.03;32.25;;;17.10;99.90;;;;;;4995869;28;20058;-73
2022/09/08 02:49:15;;;;;;;42.67;32.50;;;17.20;99.90;;;;;;4994070;28;20487;-74
2022/09/08 02:51:41;;;;;;;41.13;31.48;;;17.00;99.90;;;;;;4994643;28;20050;-74
2022/09/08 02:54:07;;;;;;;43.33;32.20;;;17.10;99.90;;;;;;4996030;28;20067;-75
2022/09/08 02:56:32;;;;;;;42.78;33.03;;;17.00;99.90;;;;;;4995205;28;20503;-74
2022/09/08 02:58:58;;;;;;;46.13;33.08;;;17.10;99.90;;;;;;4993754;28;20141;-75
2022/09/08 03:01:24;;;;;;;44.40;33.00;;;16.90;99.90;;;;;;4994411;28;20058;-74
2022/09/08 03:03:50;;;;;;;42.38;32.72;;;17.10;99.90;;;;;;4994067;28;20050;-75
2022/09/08 03:06:17;;;;;;;46.67;35.05;;;16.90;99.90;;;;;;4994986;28;20407;-74
2022/09/08 03:08:43;;;;;;;46.97;33.97;;;17.20;99.90;;;;;;4995298;28;20136;-73
2022/09/08 03:11:09;;;;;;;48.33;35.17;;;17.10;99.90;;;;;;4994908;28;20050;-74
2022/09/08 03:13:35;;;;;;;48.05;33.97;;;17.10;99.90;;;;;;4995336;28;20379;-73
2022/09/08 03:16:02;;;;;;;49.95;35.67;;;17.10;99.90;;;;;;4994545;28;20050;-73
2022/09/08 03:18:28;;;;;;;48.42;35.08;;;17.10;99.90;;;;;;4994766;28;20372;-73
2022/09/08 03:21:03;;;;;;;46.15;33.88;;;17.30;99.90;;;;;;4993547;28;20042;-73
2022/09/08 03:23:30;;;;;;;44.53;32.90;;;17.40;99.90;;;;;;4993926;28;20113;-74
2022/09/08 03:26:10;;;;;;;47.28;34.28;;;17.30;99.90;;;;;;4994647;28;20057;-74
2022/09/08 03:28:37;;;;;;;45.28;33.30;;;17.20;99.90;;;;;;4994545;28;20461;-74
2022/09/08 03:31:07;;;;;;;44.28;33.45;;;17.20;99.90;;;;;;4995077;28;20132;-74
2022/09/08 03:33:32;;;;;;;48.05;35.15;;;17.30;99.90;;;;;;4993155;28;20133;-74
2022/09/08 03:36:03;;;;;;;49.25;34.92;;;17.00;99.90;;;;;;4994533;28;20461;-74
2022/09/08 03:38:29;;;;;;;46.67;33.75;;;17.30;99.90;;;;;;4993188;28;20474;-74
2022/09/08 03:40:55;;;;;;;48.45;35.03;;;17.20;99.90;;;;;;4993146;28;20061;-74
2022/09/08 03:43:21;;;;;;;46.78;35.70;;;17.30;99.90;;;;;;4994655;28;20034;-74
2022/09/08 03:45:46;;;;;;;50.13;35.55;;;17.20;99.90;;;;;;4994302;28;20138;-74
2022/09/08 03:48:14;;;;;;;51.67;36.15;;;17.00;99.90;;;;;;4977598;28;20073;-74
2022/09/08 03:50:40;;;;;;;46.97;35.08;;;17.20;99.90;;;;;;4994335;28;20061;-74
2022/09/08 03:53:06;;;;;;;50.33;34.88;;;17.20;99.90;;;;;;4994249;28;20055;-74
2022/09/08 03:55:32;;;;;;;47.50;35.17;;;17.40;99.90;;;;;;4993921;28;20051;-73
2022/09/08 03:57:59;;;;;;;47.00;34.83;;;17.30;99.90;;;;;;4994191;28;20047;-74
2022/09/08 04:00:26;;;;;;;48.50;35.53;;;17.20;99.90;;;;;;4994020;28;20062;-75
2022/09/08 04:02:52;;;;;;;49.65;36.38;;;17.30;99.90;;;;;;4994666;28;20188;-74
2022/09/08 04:05:17;;;;;;;45.50;34.03;;;17.10;99.90;;;;;;4992973;28;20125;-75
2022/09/08 04:07:43;;;;;;;49.47;36.05;;;17.40;99.90;;;;;;4993983;28;20057;-74
2022/09/08 04:10:11;;;;;;;50.97;37.30;;;17.20;99.90;;;;;;4994093;28;20423;-74
2022/09/08 04:12:38;;;;;;;47.67;35.20;;;17.20;99.90;;;;;;4993115;28;20043;-74
2022/09/08 04:15:05;;;;;;;51.80;36.88;;;16.70;99.90;;;;;;4993123;28;20069;-74
2022/09/08 04:17:31;;;;;;;47.30;35.53;;;17.10;99.90;;;;;;4993886;28;20434;-75
2022/09/08 04:19:56;;;;;;;47.97;36.13;;;17.40;99.90;;;;;;4994067;28;20042;-75
2022/09/08 04:22:24;;;;;;;47.05;35.38;;;17.30;99.90;;;;;;4994041;28;20088;-75
2022/09/08 04:24:50;;;;;;;48.45;36.20;;;17.30;99.90;;;;;;4994023;28;20093;-74
2022/09/08 04:27:17;;;;;;;50.10;36.70;;;17.40;99.90;;;;;;4994088;28;20086;-75
2022/09/08 04:29:43;;;;;;;49.38;36.10;;;17.20;99.90;;;;;;4992685;28;20053;-74
2022/09/08 04:32:09;;;;;;;45.72;35.45;;;17.40;99.90;;;;;;4992925;28;20050;-74
2022/09/08 04:34:36;;;;;;;47.33;35.15;;;17.30;99.90;;;;;;4994562;28;20046;-75
2022/09/08 04:37:04;;;;;;;47.17;35.78;;;17.50;99.90;;;;;;4992949;28;20051;-75
2022/09/08 04:39:31;;;;;;;46.17;35.38;;;17.20;99.90;;;;;;4993432;28;20071;-75
2022/09/08 04:41:57;;;;;;;48.45;36.17;;;17.30;99.90;;;;;;4994399;28;20046;-75
2022/09/08 04:44:22;;;;;;;48.42;36.47;;;17.50;99.90;;;;;;4993896;28;20422;-75
2022/09/08 04:46:48;;;;;;;48.78;36.63;;;17.40;99.90;;;;;;4979357;28;20052;-75
2022/09/08 04:49:14;;;;;;;48.30;36.67;;;17.20;99.90;;;;;;4997489;28;20085;-75
2022/09/08 04:51:40;;;;;;;46.80;35.17;;;17.20;99.90;;;;;;4997496;28;20046;-75
2022/09/08 04:54:06;;;;;;;46.85;35.78;;;17.30;99.90;;;;;;4997302;28;20057;-75
2022/09/08 04:56:32;;;;;;;47.53;35.42;;;17.30;99.90;;;;;;4997370;28;20046;-75
2022/09/08 04:59:00;;;;;;;44.20;33.70;;;17.40;99.90;;;;;;4997178;28;20149;-75
2022/09/08 05:01:29;;;;;;;47.33;35.17;;;17.50;99.90;;;;;;4996725;28;20050;-75
2022/09/08 05:03:56;;;;;;;49.30;35.97;;;17.20;99.90;;;;;;4997338;28;20049;-75
2022/09/08 05:06:23;;;;;;;45.08;35.10;;;17.30;99.90;;;;;;4997759;28;20042;-75
2022/09/08 05:08:51;;;;;;;48.88;35.70;;;17.30;99.90;;;;;;4997061;28;20053;-75
2022/09/08 05:11:19;;;;;;;43.70;34.70;;;17.30;99.90;;;;;;4996153;28;20058;-75
2022/09/08 05:13:45;;;;;;;51.90;35.67;;;17.40;99.90;;;;;;4996060;28;20500;-75
2022/09/08 05:16:16;;;;;;;46.30;35.20;;;17.30;99.90;;;;;;4997305;28;20101;-75
2022/09/08 05:18:47;;;;;;;47.92;34.10;;;17.30;99.90;;;;;;4995845;28;20046;-75
2022/09/08 05:21:12;;;;;;;46.00;34.38;;;17.30;99.90;;;;;;4997775;28;20046;-75
2022/09/08 05:23:38;;;;;;;44.78;34.17;;;17.30;99.90;;;;;;4997159;28;20386;-75
2022/09/08 05:26:06;;;;;;;45.15;33.47;;;17.20;99.90;;;;;;4979537;28;20042;-75
2022/09/08 05:28:35;;;;;;;47.67;35.30;;;17.20;99.90;;;;;;4995671;28;20042;-75
2022/09/08 05:31:01;;;;;;;47.72;34.60;;;17.50;99.90;;;;;;4996762;28;20050;-75
2022/09/08 05:33:27;;;;;;;46.85;35.45;;;17.30;99.90;;;;;;4996713;28;20125;-75
2022/09/08 05:35:54;;;;;;;46.90;33.95;;;17.30;99.90;;;;;;4996745;28;20622;-75
2022/09/08 05:38:20;;;;;;;48.65;35.47;;;17.30;99.90;;;;;;4996835;28;20053;-75
2022/09/08 05:40:46;;;;;;;48.30;35.47;;;17.20;99.90;;;;;;4995089;28;20523;-75
2022/09/08 05:43:15;;;;;;;47.58;36.55;;;17.30;99.90;;;;;;4996497;28;20043;-75
2022/09/08 05:45:49;;;;;;;48.28;36.55;;;17.10;99.90;;;;;;4996498;28;20085;-76
2022/09/08 05:48:15;;;;;;;48.40;36.45;;;17.30;99.90;;;;;;4996413;28;20047;-76
2022/09/08 05:50:42;;;;;;;48.92;37.17;;;17.20;99.90;;;;;;4996395;28;20050;-75
2022/09/08 05:53:08;;;;;;;50.10;35.88;;;17.30;99.90;;;;;;4995596;28;20108;-76
2022/09/08 05:55:34;;;;;;;49.08;37.15;;;17.40;99.90;;;;;;4996847;28;20474;-75
2022/09/08 05:58:00;;;;;;;49.08;36.67;;;17.40;99.90;;;;;;4996508;28;20049;-75
2022/09/08 06:00:25;;;;;;;53.10;37.08;;;17.30;99.90;;;;;;4994948;28;20141;-75
2022/09/08 06:02:52;;;;;;;51.75;37.85;;;17.30;99.90;;;;;;4996175;28;20058;-75
2022/09/08 06:05:19;;;;;;;50.40;36.45;;;17.40;99.90;;;;;;4996089;28;20085;-75
2022/09/08 06:07:46;;;;;;;47.30;35.60;;;17.40;99.90;;;;;;4996439;28;20108;-76
2022/09/08 06:10:13;;;;;;;54.08;38.30;;;17.30;99.90;;;;;;4996092;28;20042;-76
2022/09/08 06:12:39;;;;;;;47.15;35.83;;;17.30;99.90;;;;;;4995987;28;20038;-75
2022/09/08 06:15:05;;;;;;;48.42;36.67;;;17.30;99.90;;;;;;4994736;28;20098;-75
2022/09/08 06:17:31;;;;;;;51.95;37.13;;;17.10;99.90;;;;;;4996420;28;20064;-75
2022/09/08 06:19:57;;;;;;;46.67;35.45;;;17.20;99.90;;;;;;4995881;28;20538;-75
2022/09/08 06:22:23;;;;;;;45.83;35.13;;;17.30;99.90;;;;;;4995862;28;20109;-75
2022/09/08 06:24:49;;;;;;;48.55;35.83;;;17.30;99.90;;;;;;4996216;28;20046;-75
2022/09/08 06:27:48;;;;;;;50.10;36.40;;;17.40;99.90;;;;;;4995850;28;20046;-75
2022/09/08 06:30:18;;;;;;;48.28;35.67;;;17.40;99.90;;;;;;4991530;28;20109;-75
2022/09/08 06:32:53;;;;;;;48.03;36.00;;;17.30;99.90;;;;;;4994618;28;20089;-75
2022/09/08 06:35:25;;;;;;;48.03;35.03;;;17.40;99.90;;;;;;4995728;28;20038;-73
2022/09/08 06:38:02;;;;;;;44.60;33.55;;;17.40;99.90;;;;;;4995849;28;20046;-74
2022/09/08 06:40:48;;;;;;;45.35;34.78;;;17.80;99.90;;;;;;4995683;28;20050;-76
2022/09/08 06:43:30;;;;;;;48.47;35.13;;;17.30;99.90;;;;;;4995882;28;20049;-76
2022/09/08 06:45:57;;;;;;;44.85;34.17;;;17.30;99.90;;;;;;4995425;28;20061;-75
2022/09/08 06:48:34;;;;;;;43.20;32.78;;;17.30;99.90;;;;;;4995379;28;20042;-76
2022/09/08 06:51:06;;;;;;;43.00;32.60;;;17.50;99.90;;;;;;4995387;28;20054;-76
2022/09/08 06:53:43;;;;;;;41.53;30.90;;;17.50;99.90;;;;;;4995670;28;20467;-76
2022/09/08 06:56:24;;;;;;;41.47;30.90;;;17.60;99.90;;;;;;4994661;28;20138;-74
2022/09/08 06:58:54;;;;;;;43.17;32.95;;;17.90;99.90;;;;;;4996088;28;20461;-77
2022/09/08 07:01:32;;;;;;;41.22;32.45;;;17.50;99.90;;;;;;4995274;28;20141;-74
2022/09/08 07:04:30;;;;;;;42.45;32.95;;;17.50;99.90;;;;;;4995765;28;20052;-74
2022/09/08 07:07:06;;;;;;;47.00;36.80;;;17.80;99.90;;;;;;4994431;28;20054;-74
2022/09/08 07:09:41;;;;;;;51.30;38.28;;;17.70;99.90;;;;;;4994822;28;20128;-79
2022/09/08 07:12:39;;;;;;;53.05;39.05;;;17.50;99.90;;;;;;4992986;28;20475;-75
2022/09/08 07:15:37;;;;;;;52.67;39.88;;;17.60;99.90;;;;;;4994697;28;20050;-75
2022/09/08 07:18:28;;;;;;;53.60;40.97;;;17.50;99.90;;;;;;4993791;28;20050;-75
2022/09/08 07:21:06;;;;;;;56.25;42.65;;;17.40;99.90;;;;;;4993714;28;20065;-74
2022/09/08 07:23:37;;;;;;;64.20;43.42;;;17.50;99.90;;;;;;4994025;28;20050;-74
2022/09/08 07:26:11;;;;;;;66.25;46.35;;;17.30;99.90;;;;;;4994251;28;20061;-77
2022/09/08 07:28:42;;;;;;;71.50;53.53;;;17.50;99.90;;;;;;4992745;28;20180;-74
2022/09/08 07:31:20;;;;;;;76.22;52.00;;;17.30;99.90;;;;;;4993679;28;20059;-74
2022/09/08 07:33:51;;;;;;;71.68;47.28;;;17.30;99.90;;;;;;4993627;28;20042;-74
2022/09/08 07:36:29;;;;;;;75.88;47.90;;;17.40;99.90;;;;;;4993429;28;20046;-74
2022/09/08 07:38:57;;;;;;;64.03;42.75;;;17.30;99.90;;;;;;4993513;28;20038;-74
2022/09/08 07:41:37;;;;;;;74.60;50.53;;;17.40;99.90;;;;;;4993071;28;20055;-74
2022/09/08 07:44:13;;;;;;;72.00;46.55;;;17.20;99.90;;;;;;4994335;28;20061;-74
2022/09/08 07:47:01;;;;;;;70.07;44.20;;;17.30;99.90;;;;;;4994407;28;20132;-75
2022/09/08 07:49:33;;;;;;;75.30;45.58;;;17.40;99.90;;;;;;4993927;28;20053;-74
2022/09/08 07:52:10;;;;;;;70.40;46.23;;;17.30;99.90;;;;;;4992777;28;20072;-74
2022/09/08 07:54:51;;;;;;;67.22;45.47;;;17.40;99.90;;;;;;4994812;28;20391;-75
2022/09/08 07:57:42;;;;;;;59.00;41.13;;;17.60;99.90;;;;;;4994516;28;20050;-76
2022/09/08 08:00:14;;;;;;;68.18;45.00;;;17.20;99.90;;;;;;4993553;28;20419;-76
2022/09/08 08:03:08;;;;;;;57.47;40.15;;;17.40;99.90;;;;;;4992397;28;20062;-78
2022/09/08 08:05:49;;;;;;;70.57;44.00;;;17.40;99.90;;;;;;4993565;28;20130;-75
2022/09/08 08:08:46;;;;;;;64.95;41.45;;;17.50;99.90;;;;;;4994053;28;20073;-75
2022/09/08 08:11:27;;;;;;;69.68;43.55;;;17.40;99.90;;;;;;4993868;28;20529;-75
2022/09/08 08:13:53;;;;;;;66.65;43.72;;;17.30;99.90;;;;;;4993486;28;20054;-72
2022/09/08 08:16:34;;;;;;;56.80;39.40;;;17.50;99.90;;;;;;4994768;28;20528;-71
2022/09/08 08:19:18;;;;;;;72.90;44.30;;;17.40;99.90;;;;;;4994801;28;20406;-75
2022/09/08 08:21:54;;;;;;;65.10;42.88;;;17.70;99.90;;;;;;4998785;28;20497;-75
2022/09/08 08:24:36;;;;;;;65.00;43.65;;;17.50;99.90;;;;;;4997039;28;20457;-77
2022/09/08 08:27:06;;;;;;;53.90;39.35;;;17.90;99.90;;;;;;4998479;28;20050;-78
2022/09/08 08:29:37;;;;;;;60.85;41.67;;;17.50;99.90;;;;;;4997992;28;20042;-74
2022/09/08 08:32:12;;;;;;;55.00;38.10;;;17.60;99.90;;;;;;4998090;28;20054;-73
2022/09/08 08:34:47;;;;;;;59.50;40.47;;;17.60;99.90;;;;;;4997934;28;20042;-75
2022/09/08 08:37:20;;;;;;;52.63;40.72;;;17.60;99.90;;;;;;4998516;28;20042;-73
2022/09/08 08:39:48;;;;;;;56.70;42.80;;;17.60;99.90;;;;;;4997810;28;20050;-73
2022/09/08 08:42:57;;;;;;;66.13;47.75;;;17.70;99.90;;;;;;4998323;28;20050;-71
2022/09/08 08:45:52;;;;;;;68.28;50.33;;;17.70;99.90;;;;;;4981118;28;20446;-71
2022/09/08 08:48:36;;;;;;;56.88;39.42;;;17.80;99.90;;;;;;4997662;28;20049;-70
2022/09/08 08:51:17;;;;;;;53.70;38.13;;;17.80;99.90;;;;;;4997712;28;20042;-71
2022/09/08 08:54:11;;;;;;;57.20;38.83;;;17.80;99.90;;;;;;4997549;28;20046;-71
2022/09/08 08:56:43;;;;;;;46.08;34.03;;;17.90;99.90;;;;;;4998405;28;20360;-70
2022/09/08 08:59:42;;;;;;;42.53;32.53;;;17.80;99.90;;;;;;4996694;28;20094;-70
2022/09/08 09:02:28;;;;;;;48.38;35.90;;;17.90;99.90;;;;;;4997405;28;20058;-71
2022/09/08 09:05:12;;;;;;;52.70;34.50;;;17.80;99.90;;;;;;4997441;28;20053;-70
2022/09/08 09:08:11;;;;;;;43.13;31.88;;;18.10;99.90;;;;;;4997892;28;20134;-73
2022/09/08 09:11:14;;;;;;;47.55;34.20;;;18.00;99.90;;;;;;4997322;28;20081;-71
2022/09/08 09:13:52;;;;;;;39.97;31.13;;;18.30;99.90;;;;;;4997323;28;20050;-73
2022/09/08 09:16:22;;;;;;;45.58;32.25;;;18.20;99.90;;;;;;4997778;28;20047;-74
2022/09/08 09:19:06;;;;;;;42.83;32.03;;;18.20;99.90;;;;;;4998060;28;20375;-75
2022/09/08 09:22:05;;;;;;;38.70;29.58;;;18.00;99.90;;;;;;4979913;28;20475;-70
2022/09/08 09:24:42;;;;;;;68.55;50.20;;;18.10;99.90;;;;;;4997379;28;20057;-70
2022/09/08 09:27:26;;;;;;;63.45;46.47;;;18.10;99.90;;;;;;4979852;28;20557;-73
2022/09/08 09:30:19;;;;;;;42.25;32.40;;;18.20;99.90;;;;;;4996908;28;20088;-73
2022/09/08 09:32:56;;;;;;;41.70;31.00;;;18.30;99.90;;;;;;4991861;28;20153;-74
2022/09/08 09:35:53;;;;;;;41.65;30.88;;;18.20;99.90;;;;;;4997442;28;20042;-71
2022/09/08 09:38:24;;;;;;;40.65;30.10;;;18.30;99.90;;;;;;4996736;28;20502;-71
2022/09/08 09:41:25;;;;;;;36.67;28.05;;;18.30;99.90;;;;;;4997629;28;20184;-69
2022/09/08 09:44:08;;;;;;;35.65;27.33;;;18.30;99.90;;;;;;4997545;28;20042;-69
2022/09/08 09:46:52;;;;;;;38.85;28.10;;;18.30;99.90;;;;;;4996672;28;20058;-72
2022/09/08 09:49:32;;;;;;;34.33;25.75;;;18.30;99.90;;;;;;4996755;28;20100;-68
2022/09/08 09:52:15;;;;;;;30.95;24.40;;;18.40;99.90;;;;;;4997126;28;20043;-68
2022/09/08 09:55:01;;;;;;;29.98;23.52;;;18.20;99.90;;;;;;4995886;28;20133;-70
2022/09/08 09:58:12;;;;;;;36.20;25.70;;;18.10;99.90;;;;;;4996521;28;20125;-70
2022/09/08 10:00:50;;;;;;;31.77;24.88;;;18.20;99.90;;;;;;4987884;28;20101;-71
2022/09/08 10:03:19;;;;;;;36.55;26.27;;;18.30;99.90;;;;;;4996893;28;20054;-71
2022/09/08 10:06:12;;;;;;;35.78;25.73;;;18.20;99.90;;;;;;4996277;28;20042;-69
2022/09/08 10:09:25;;;;;;;30.80;23.55;;;18.40;99.90;;;;;;4996172;28;20046;-72
2022/09/08 10:12:20;;;;;;;31.20;23.48;;;18.20;99.90;;;;;;4979838;28;20140;-71
2022/09/08 10:15:05;;;;;;;32.45;23.80;;;18.30;99.90;;;;;;4996941;28;20077;-69
2022/09/08 10:17:49;;;;;;;29.80;24.15;;;18.10;99.90;;;;;;4997173;28;20054;-70
2022/09/08 10:20:36;;;;;;;37.25;27.05;;;18.20;99.90;;;;;;4996027;28;20093;-73
2022/09/08 10:23:48;;;;;;;37.42;26.70;;;18.30;99.90;;;;;;4996833;28;20453;-71
2022/09/08 10:26:32;;;;;;;35.60;25.10;;;18.40;99.90;;;;;;4996033;28;20066;-73
2022/09/08 10:29:17;;;;;;;25.95;20.45;;;18.00;99.90;;;;;;4995834;28;20054;-72
2022/09/08 10:32:30;;;;;;;24.65;20.05;;;18.00;99.90;;;;;;4996693;28;20368;-71
2022/09/08 10:35:37;;;;;;;24.02;19.13;;;18.20;99.90;;;;;;4982495;28;20402;-72
2022/09/08 10:38:21;;;;;;;27.40;20.35;;;18.30;99.90;;;;;;4995019;28;20051;-73
2022/09/08 10:41:31;;;;;;;27.83;20.27;;;18.10;99.90;;;;;;4996254;28;20104;-75
2022/09/08 10:44:19;;;;;;;26.95;21.13;;;18.50;99.90;;;;;;4983657;28;20054;-76
2022/09/08 10:46:58;;;;;;;27.38;20.60;;;18.10;99.90;;;;;;4996080;28;20046;-76
2022/09/08 10:49:45;;;;;;;23.52;19.25;;;18.00;99.90;;;;;;4995999;28;20034;-77
2022/09/08 10:52:20;;;;;;;27.95;20.42;;;18.30;99.90;;;;;;4995460;28;20062;-77
2022/09/08 10:55:27;;;;;;;26.75;20.52;;;18.20;99.90;;;;;;4995415;28;20133;-77
2022/09/08 10:58:23;;;;;;;27.58;18.00;;;18.50;99.90;;;;;;4995413;28;20085;-77
2022/09/08 11:01:04;;;;;;;17.75;14.30;;;18.40;99.90;;;;;;4995574;28;20054;-76
2022/09/08 11:04:16;;;;;;;18.58;14.05;;;18.00;99.90;;;;;;4995530;28;20046;-75
2022/09/08 11:07:20;;;;;;;20.08;15.40;;;18.20;99.90;;;;;;5084382;28;20915;-76
2022/09/08 11:10:25;;;;;;;22.17;17.38;;;18.30;99.90;;;;;;5069450;28;20071;-76
2022/09/08 11:13:28;;;;;;;23.33;17.42;;;18.30;99.90;;;;;;5085119;28;20087;-77
2022/09/08 11:16:09;;;;;;;;;;;18.20;99.90;;;;;;5083002;28;20330;-76
2022/09/08 11:18:43;;;;;;;22.20;15.57;;;18.10;99.90;;;;;;5084515;28;19924;-79
2022/09/08 11:21:25;;;;;;;21.55;14.90;;;18.10;99.90;;;;;;5085066;28;20052;-76
2022/09/08 11:24:24;;;;;;;16.30;11.97;;;18.00;99.90;;;;;;5077958;28;20057;-76
2022/09/08 11:27:13;;;;;;;14.80;10.15;;;17.70;99.90;;;;;;5075529;28;20824;-79
2022/09/08 11:29:39;;;;;;;14.70;12.05;;;18.10;99.90;;;;;;5083567;28;20048;-75
2022/09/08 11:32:25;;;;;;;11.63;7.10;;;18.10;99.90;;;;;;5065044;28;20044;-79
2022/09/08 11:34:59;;;;;;;7.60;5.85;;;18.10;99.90;;;;;;5083695;28;20044;-79
2022/09/08 11:37:48;;;;;;;14.35;7.70;;;17.80;99.90;;;;;;5083900;28;20442;-79
2022/09/08 11:40:41;;;;;;;9.18;7.10;;;17.80;99.90;;;;;;5081882;28;20058;-78
2022/09/08 11:43:25;;;;;;;9.07;7.47;;;17.70;99.90;;;;;;5080808;28;20052;-79
2022/09/08 11:46:05;;;;;;;14.90;10.02;;;17.80;99.90;;;;;;5079465;28;20139;-79
2022/09/08 11:48:46;;;;;;;15.43;9.52;;;17.80;99.90;;;;;;5083351;28;20098;-82
2022/09/08 11:51:35;;;;;;;11.70;8.07;;;17.70;99.90;;;;;;5081283;28;20048;-79
2022/09/08 11:54:12;;;;;;;8.35;7.07;;;17.70;99.90;;;;;;5048473;28;20143;-79
2022/09/08 11:57:02;;;;;;;9.40;6.88;;;17.60;99.90;;;;;;5079917;28;20064;-79
2022/09/08 11:59:56;;;;;;;8.75;5.32;;;17.80;99.90;;;;;;5081023;28;20040;-80
2022/09/08 12:02:41;;;;;;;4.70;4.22;;;17.70;99.90;;;;;;5081350;28;20511;-79
2022/09/08 12:05:28;;;;;;;8.75;5.75;;;17.80;99.90;;;;;;5082103;28;20060;-79
2022/09/08 12:08:06;;;;;;;6.85;4.53;;;17.60;99.90;;;;;;5078223;28;20052;-79
2022/09/08 12:10:54;;;;;;;3.92;3.08;;;17.70;99.90;;;;;;5079593;28;20043;-80
2022/09/08 12:13:29;;;;;;;7.75;3.88;;;17.80;99.90;;;;;;5081498;28;20625;-79
2022/09/08 12:16:28;;;;;;;5.07;3.33;;;17.60;99.90;;;;;;5082150;28;20123;-80
2022/09/08 12:19:25;;;;;;;1.80;1.60;;;17.40;99.90;;;;;;5050535;28;20059;-80
2022/09/08 12:22:03;;;;;;;2.13;1.45;;;17.60;99.90;;;;;;5068765;28;20048;-80
2022/09/08 12:24:53;;;;;;;2.35;1.30;;;17.70;99.90;;;;;;5065561;28;20045;-80
2022/09/08 12:27:40;;;;;;;2.33;1.40;;;17.60;99.90;;;;;;5067291;28;20048;-81
2022/09/08 12:30:14;;;;;;;4.10;1.60;;;17.50;99.90;;;;;;5067311;28;20059;-81
2022/09/08 12:33:06;;;;;;;2.13;0.85;;;17.30;99.90;;;;;;5069259;28;20049;-80
2022/09/08 12:35:46;;;;;;;1.58;0.63;;;17.50;99.90;;;;;;5067070;28;20049;-80
2022/09/08 12:38:41;;;;;;;0.98;0.60;;;17.30;99.90;;;;;;5066008;28;20396;-80
2022/09/08 12:41:26;;;;;;;1.52;0.80;;;17.20;99.90;;;;;;5066988;28;20052;-78
2022/09/08 12:44:12;;;;;;;1.00;0.73;;;17.30;99.90;;;;;;5075029;28;20151;-80
2022/09/08 12:47:13;;;;;;;1.40;0.82;;;17.20;99.90;;;;;;5073179;28;20080;-80
2022/09/08 12:50:01;;;;;;;2.13;0.90;;;17.10;99.90;;;;;;5073443;28;20056;-80
2022/09/08 12:52:27;;;;;;;1.63;0.70;;;17.10;99.90;;;;;;5074841;28;20113;-79
2022/09/08 12:55:18;;;;;;;1.70;0.80;;;17.00;99.90;;;;;;5074449;28;20505;-80
2022/09/08 12:57:55;;;;;;;1.35;0.75;;;17.10;99.90;;;;;;5073025;28;20052;-80
2022/09/08 13:00:27;;;;;;;1.70;0.95;;;17.10;99.90;;;;;;5072779;28;20080;-80
2022/09/08 13:03:08;;;;;;;3.42;1.08;;;17.10;99.90;;;;;;5072544;28;20476;-79
2022/09/08 13:05:42;;;;;;;2.45;1.05;;;17.20;99.90;;;;;;5072688;28;20406;-80
2022/09/08 13:08:44;;;;;;;1.50;1.00;;;17.20;99.90;;;;;;5073761;28;20044;-79
2022/09/08 13:11:29;;;;;;;2.65;1.10;;;17.30;99.90;;;;;;5069205;28;20064;-80
2022/09/08 13:14:02;;;;;;;3.72;1.75;;;17.20;99.90;;;;;;5072746;28;20113;-79
2022/09/08 13:16:42;;;;;;;2.95;1.30;;;17.20;99.90;;;;;;5073732;28;20443;-79
2022/09/08 13:19:25;;;;;;;2.40;1.20;;;17.30;99.90;;;;;;5073929;28;20101;-80
2022/09/08 13:22:30;;;;;;;2.80;1.23;;;17.30;99.90;;;;;;5074839;28;20040;-80